Time,TemperatureF,DewpointF,PressureIn,WindDirection,WindDirectionDegrees,WindSpeedMPH,WindSpeedGustMPH,Humidity,HourlyPrecipIn,Conditions,Clouds,dailyrainin,SoftwareType,DateUTC
2013-04-09 00:03:00,48.2,44.2,29.98,South,180,1.7,-999.0,86,-99.99,,,0.00,Acu-Link.com,2013-04-09 07:03:00,
2013-04-09 00:22:00,47.8,44.1,29.98,ESE,112,1.1,-999.0,87,-99.99,,,0.00,Acu-Link.com,2013-04-09 07:22:00,
2013-04-09 00:39:00,47.3,43.6,30.00,ESE,112,2.2,-999.0,87,-99.99,,,0.00,Acu-Link.com,2013-04-09 07:39:00,
2013-04-09 00:54:00,46.8,43.4,30.00,SE,135,0.0,-999.0,88,-99.99,,,0.00,Acu-Link.com,2013-04-09 07:54:00,
2013-04-09 01:23:00,46.6,43.2,30.00,South,180,3.2,-999.0,88,-99.99,,,0.00,Acu-Link.com,2013-04-09 08:23:00,
2013-04-09 01:54:00,46.0,42.6,30.01,ESE,112,2.7,-999.0,88,-99.99,,,0.00,Acu-Link.com,2013-04-09 08:54:00,
2013-04-09 02:10:00,45.5,42.4,30.02,ESE,112,0.0,-999.0,89,-99.99,,,0.00,Acu-Link.com,2013-04-09 09:10:00,
2013-04-09 02:26:00,45.3,42.3,30.03,East,90,1.7,-999.0,89,-99.99,,,0.00,Acu-Link.com,2013-04-09 09:26:00,
2013-04-09 02:45:00,45.1,42.3,30.02,ESE,112,1.7,-999.0,90,-99.99,,,0.00,Acu-Link.com,2013-04-09 09:45:00,
2013-04-09 03:01:00,45.0,42.2,30.01,ESE,112,1.1,-999.0,90,-99.99,,,0.00,Acu-Link.com,2013-04-09 10:01:00,
2013-04-09 03:22:00,45.0,42.2,30.02,WNW,292,1.1,-999.0,90,-99.99,,,0.00,Acu-Link.com,2013-04-09 10:22:00,
2013-04-09 03:37:00,45.5,42.2,30.02,East,90,1.7,-999.0,88,-99.99,,,0.00,Acu-Link.com,2013-04-09 10:37:00,
2013-04-09 03:53:00,45.5,42.2,30.03,East,90,1.1,-999.0,88,-99.99,,,0.00,Acu-Link.com,2013-04-09 10:53:00,
2013-04-09 04:08:00,45.5,42.4,30.03,SE,135,1.1,-999.0,89,-99.99,,,0.00,Acu-Link.com,2013-04-09 11:08:00,
2013-04-09 04:39:00,45.1,42.1,30.04,ESE,112,0.0,-999.0,89,-99.99,,,0.00,Acu-Link.com,2013-04-09 11:39:00,
2013-04-09 05:09:00,45.3,42.5,30.04,SSE,157,0.0,-999.0,90,-99.99,,,0.00,Acu-Link.com,2013-04-09 12:09:00,
2013-04-09 05:40:00,45.1,42.3,30.05,SE,135,2.7,-999.0,90,-99.99,,,0.00,Acu-Link.com,2013-04-09 12:40:00,
2013-04-09 06:03:00,44.8,42.3,30.04,East,90,2.2,-999.0,91,-99.99,,,0.00,Acu-Link.com,2013-04-09 13:03:00,
2013-04-09 06:18:00,44.8,42.3,30.04,East,90,2.7,-999.0,91,-99.99,,,0.00,Acu-Link.com,2013-04-09 13:18:00,
2013-04-09 06:33:00,45.3,42.3,30.04,South,180,2.7,-999.0,89,-99.99,,,0.00,Acu-Link.com,2013-04-09 13:33:00,
2013-04-09 06:48:00,45.3,42.3,30.04,ESE,112,0.0,-999.0,89,-99.99,,,0.00,Acu-Link.com,2013-04-09 13:48:00,
2013-04-09 07:34:00,46.2,42.8,30.05,NNE,22,0.0,-999.0,88,-99.99,,,0.00,Acu-Link.com,2013-04-09 14:34:00,
2013-04-09 07:49:00,46.8,42.8,30.05,ESE,112,3.2,-999.0,86,-99.99,,,0.00,Acu-Link.com,2013-04-09 14:49:00,
2013-04-09 08:05:00,46.8,42.8,30.06,East,90,3.7,-999.0,86,-99.99,,,0.00,Acu-Link.com,2013-04-09 15:05:00,
2013-04-09 08:51:00,49.8,43.6,30.04,SE,135,1.1,-999.0,79,-99.99,,,0.00,Acu-Link.com,2013-04-09 15:51:00,
2013-04-09 09:21:00,49.6,43.0,30.04,South,180,3.7,-999.0,78,-99.99,,,0.00,Acu-Link.com,2013-04-09 16:21:00,
2013-04-09 18:15:00,55.0,43.0,29.98,SSW,202,2.2,-999.0,64,-99.99,,,0.00,Acu-Link.com,2013-04-10 01:15:00,
2013-04-09 18:32:00,54.5,43.0,29.99,SSW,202,3.2,-999.0,65,-99.99,,,0.00,Acu-Link.com,2013-04-10 01:32:00,
2013-04-09 19:35:00,54.1,42.2,29.95,ESE,112,2.7,-999.0,64,-99.99,,,0.00,Acu-Link.com,2013-04-10 02:35:00,
2013-04-09 19:54:00,54.0,42.1,29.94,SE,135,2.7,-999.0,64,-99.99,,,0.00,Acu-Link.com,2013-04-10 02:54:00,
2013-04-09 20:10:00,53.8,41.9,29.94,South,180,1.1,-999.0,64,-99.99,,,0.00,Acu-Link.com,2013-04-10 03:10:00,
2013-04-09 20:36:00,54.0,41.7,29.94,ESE,112,1.7,-999.0,63,-99.99,,,0.00,Acu-Link.com,2013-04-10 03:36:00,
2013-04-09 20:52:00,53.8,41.5,29.94,SE,135,2.2,-999.0,63,-99.99,,,0.00,Acu-Link.com,2013-04-10 03:52:00,
2013-04-09 21:09:00,53.8,41.5,29.93,ESE,112,1.7,-999.0,63,-99.99,,,0.00,Acu-Link.com,2013-04-10 04:09:00,
2013-04-09 21:33:00,53.8,41.9,29.93,ESE,112,0.0,-999.0,64,-99.99,,,0.00,Acu-Link.com,2013-04-10 04:33:00,
2013-04-09 21:52:00,53.8,42.3,29.94,SSW,202,1.7,-999.0,65,-99.99,,,0.00,Acu-Link.com,2013-04-10 04:52:00,
2013-04-09 22:07:00,53.8,42.7,29.92,ESE,112,0.0,-999.0,66,-99.99,,,0.00,Acu-Link.com,2013-04-10 05:07:00,
2013-04-09 22:26:00,53.8,43.1,29.92,SSE,157,1.7,-999.0,67,-99.99,,,0.00,Acu-Link.com,2013-04-10 05:26:00,
2013-04-09 22:43:00,53.6,43.3,29.91,SE,135,2.7,-999.0,68,-99.99,,,0.00,Acu-Link.com,2013-04-10 05:43:00,
2013-04-09 23:00:00,53.8,43.1,29.92,South,180,4.2,-999.0,67,-99.99,,,0.00,Acu-Link.com,2013-04-10 06:00:00,
2013-04-09 23:15:00,53.2,43.7,29.91,SW,225,1.7,-999.0,70,-99.99,,,0.00,Acu-Link.com,2013-04-10 06:15:00,
2013-04-09 23:30:00,53.2,43.7,29.90,SE,135,3.2,-999.0,70,-99.99,,,0.00,Acu-Link.com,2013-04-10 06:30:00,
2013-04-09 23:46:00,52.9,43.4,29.90,South,180,1.1,-999.0,70,-99.99,,,0.00,Acu-Link.com,2013-04-10 06:46:00,